sensor_id;sensor_type;location;lat;lon;timestamp;pressure;altitude;pressure_sealevel;temperature;humidity
74958;BME280;63741;42.624;26.276;2023-04-29T00:00:04;99933.44;;;7.62;62.11
74958;BME280;63741;42.624;26.276;2023-04-29T00:02:38;99929.78;;;7.64;61.15
74958;BME280;63741;42.624;26.276;2023-04-29T00:05:06;99932.22;;;7.67;60.24
74958;BME280;63741;42.624;26.276;2023-04-29T00:07:33;99933.06;;;7.53;60.97
74958;BME280;63741;42.624;26.276;2023-04-29T00:10:02;99931.25;;;7.40;62.24
74958;BME280;63741;42.624;26.276;2023-04-29T00:12:29;99923.81;;;7.32;63.63
74958;BME280;63741;42.624;26.276;2023-04-29T00:14:57;99925.31;;;7.36;63.12
74958;BME280;63741;42.624;26.276;2023-04-29T00:17:25;99936.13;;;7.31;63.01
74958;BME280;63741;42.624;26.276;2023-04-29T00:19:52;99928.03;;;7.20;63.73
74958;BME280;63741;42.624;26.276;2023-04-29T00:22:19;99926.09;;;7.08;63.74
74958;BME280;63741;42.624;26.276;2023-04-29T00:24:48;99927.06;;;7.07;63.69
74958;BME280;63741;42.624;26.276;2023-04-29T00:27:16;99925.94;;;7.11;63.97
74958;BME280;63741;42.624;26.276;2023-04-29T00:29:43;99925.03;;;7.26;64.44
74958;BME280;63741;42.624;26.276;2023-04-29T00:32:10;99930.00;;;7.31;64.15
74958;BME280;63741;42.624;26.276;2023-04-29T00:34:37;99925.53;;;7.33;63.27
74958;BME280;63741;42.624;26.276;2023-04-29T00:37:04;99933.13;;;7.23;64.32
74958;BME280;63741;42.624;26.276;2023-04-29T00:39:31;99922.41;;;7.26;64.78
74958;BME280;63741;42.624;26.276;2023-04-29T00:41:58;99939.59;;;7.32;65.01
74958;BME280;63741;42.624;26.276;2023-04-29T00:44:25;99936.97;;;7.32;65.13
74958;BME280;63741;42.624;26.276;2023-04-29T00:46:51;99931.13;;;7.27;63.45
74958;BME280;63741;42.624;26.276;2023-04-29T00:49:19;99929.63;;;7.23;64.64
74958;BME280;63741;42.624;26.276;2023-04-29T00:51:46;99936.38;;;7.13;64.32
74958;BME280;63741;42.624;26.276;2023-04-29T00:54:14;99941.09;;;7.22;64.04
74958;BME280;63741;42.624;26.276;2023-04-29T00:56:44;99938.53;;;7.06;64.51
74958;BME280;63741;42.624;26.276;2023-04-29T00:59:12;99939.09;;;7.11;64.87
74958;BME280;63741;42.624;26.276;2023-04-29T01:01:41;99937.03;;;7.16;63.87
74958;BME280;63741;42.624;26.276;2023-04-29T01:04:08;99946.06;;;7.26;64.08
74958;BME280;63741;42.624;26.276;2023-04-29T01:06:49;99941.38;;;7.31;64.20
74958;BME280;63741;42.624;26.276;2023-04-29T01:12:25;99936.63;;;7.38;62.97
74958;BME280;63741;42.624;26.276;2023-04-29T01:15:05;99941.53;;;7.14;63.90
74958;BME280;63741;42.624;26.276;2023-04-29T01:17:43;99932.72;;;7.15;64.51
74958;BME280;63741;42.624;26.276;2023-04-29T01:20:14;99931.34;;;7.24;63.10
74958;BME280;63741;42.624;26.276;2023-04-29T01:22:42;99925.00;;;7.12;63.62
74958;BME280;63741;42.624;26.276;2023-04-29T01:25:10;99926.34;;;7.19;64.54
74958;BME280;63741;42.624;26.276;2023-04-29T01:31:14;99913.78;;;6.94;65.25
74958;BME280;63741;42.624;26.276;2023-04-29T01:37:09;99916.28;;;6.96;65.65
74958;BME280;63741;42.624;26.276;2023-04-29T01:40:08;99899.88;;;6.92;65.33
74958;BME280;63741;42.624;26.276;2023-04-29T01:42:43;99904.75;;;6.98;65.82
74958;BME280;63741;42.624;26.276;2023-04-29T01:45:15;99896.75;;;6.86;65.57
74958;BME280;63741;42.624;26.276;2023-04-29T01:47:47;99900.53;;;6.96;67.01
74958;BME280;63741;42.624;26.276;2023-04-29T01:50:16;99902.53;;;7.06;66.21
74958;BME280;63741;42.624;26.276;2023-04-29T01:52:43;99903.38;;;7.07;66.50
74958;BME280;63741;42.624;26.276;2023-04-29T01:55:10;99895.50;;;7.07;65.10
74958;BME280;63741;42.624;26.276;2023-04-29T01:58:01;99898.88;;;7.09;64.71
74958;BME280;63741;42.624;26.276;2023-04-29T02:00:48;99898.66;;;6.98;64.87
74958;BME280;63741;42.624;26.276;2023-04-29T02:03:16;99898.38;;;7.02;65.65
74958;BME280;63741;42.624;26.276;2023-04-29T02:05:46;99897.28;;;6.76;65.96
74958;BME280;63741;42.624;26.276;2023-04-29T02:08:13;99893.38;;;6.83;65.40
74958;BME280;63741;42.624;26.276;2023-04-29T02:13:46;99891.06;;;6.77;65.21
74958;BME280;63741;42.624;26.276;2023-04-29T02:16:14;99889.22;;;6.79;65.55
74958;BME280;63741;42.624;26.276;2023-04-29T02:18:55;99893.53;;;6.80;64.78
74958;BME280;63741;42.624;26.276;2023-04-29T02:21:22;99895.31;;;6.80;64.59
74958;BME280;63741;42.624;26.276;2023-04-29T02:23:49;99892.25;;;6.88;65.38
74958;BME280;63741;42.624;26.276;2023-04-29T02:26:17;99897.09;;;6.79;65.40
74958;BME280;63741;42.624;26.276;2023-04-29T02:28:44;99887.38;;;6.96;65.11
74958;BME280;63741;42.624;26.276;2023-04-29T02:31:10;99898.84;;;6.95;63.97
74958;BME280;63741;42.624;26.276;2023-04-29T02:33:38;99891.63;;;6.98;63.27
74958;BME280;63741;42.624;26.276;2023-04-29T02:36:08;99892.84;;;6.93;64.25
74958;BME280;63741;42.624;26.276;2023-04-29T02:38:34;99892.50;;;6.83;64.65
74958;BME280;63741;42.624;26.276;2023-04-29T02:41:01;99888.19;;;6.82;63.84
74958;BME280;63741;42.624;26.276;2023-04-29T02:43:28;99890.75;;;6.83;65.08
74958;BME280;63741;42.624;26.276;2023-04-29T02:45:58;99890.31;;;6.75;64.93
74958;BME280;63741;42.624;26.276;2023-04-29T02:48:26;99892.97;;;6.75;65.19
74958;BME280;63741;42.624;26.276;2023-04-29T02:50:53;99889.75;;;6.70;64.55
74958;BME280;63741;42.624;26.276;2023-04-29T02:53:20;99882.47;;;6.59;64.31
74958;BME280;63741;42.624;26.276;2023-04-29T02:55:47;99887.25;;;6.53;64.18
74958;BME280;63741;42.624;26.276;2023-04-29T02:58:14;99891.81;;;6.49;66.56
74958;BME280;63741;42.624;26.276;2023-04-29T03:00:41;99888.25;;;6.50;65.11
74958;BME280;63741;42.624;26.276;2023-04-29T03:03:08;99893.34;;;6.53;64.40
74958;BME280;63741;42.624;26.276;2023-04-29T03:05:36;99891.50;;;6.40;64.71
74958;BME280;63741;42.624;26.276;2023-04-29T03:08:03;99892.16;;;6.43;64.70
74958;BME280;63741;42.624;26.276;2023-04-29T03:10:31;99891.81;;;6.33;65.23
74958;BME280;63741;42.624;26.276;2023-04-29T03:12:58;99889.28;;;6.32;66.09
74958;BME280;63741;42.624;26.276;2023-04-29T03:15:25;99891.66;;;6.37;65.42
74958;BME280;63741;42.624;26.276;2023-04-29T03:17:52;99886.47;;;6.51;65.34
74958;BME280;63741;42.624;26.276;2023-04-29T03:20:19;99893.34;;;6.53;66.26
74958;BME280;63741;42.624;26.276;2023-04-29T03:22:46;99894.00;;;6.57;66.33
74958;BME280;63741;42.624;26.276;2023-04-29T03:25:13;99897.47;;;6.57;65.68
74958;BME280;63741;42.624;26.276;2023-04-29T03:27:40;99883.72;;;6.68;65.18
74958;BME280;63741;42.624;26.276;2023-04-29T03:30:08;99888.25;;;6.50;65.76
74958;BME280;63741;42.624;26.276;2023-04-29T03:32:41;99884.19;;;6.45;65.68
74958;BME280;63741;42.624;26.276;2023-04-29T03:35:08;99884.03;;;6.48;65.30
74958;BME280;63741;42.624;26.276;2023-04-29T03:38:00;99893.19;;;6.41;66.25
74958;BME280;63741;42.624;26.276;2023-04-29T03:40:30;99896.38;;;6.46;66.84
74958;BME280;63741;42.624;26.276;2023-04-29T03:42:57;99900.44;;;6.51;65.78
74958;BME280;63741;42.624;26.276;2023-04-29T03:45:26;99900.84;;;6.59;67.33
74958;BME280;63741;42.624;26.276;2023-04-29T03:47:53;99893.81;;;6.60;65.58
74958;BME280;63741;42.624;26.276;2023-04-29T03:50:22;99892.81;;;6.47;67.29
74958;BME280;63741;42.624;26.276;2023-04-29T03:52:48;99900.38;;;6.37;68.02
74958;BME280;63741;42.624;26.276;2023-04-29T03:55:17;99904.88;;;6.35;67.91
74958;BME280;63741;42.624;26.276;2023-04-29T03:57:44;99903.06;;;6.51;66.76
74958;BME280;63741;42.624;26.276;2023-04-29T04:00:13;99906.63;;;6.50;67.69
74958;BME280;63741;42.624;26.276;2023-04-29T04:02:45;99909.00;;;6.55;67.02
74958;BME280;63741;42.624;26.276;2023-04-29T04:05:13;99902.75;;;6.57;67.73
74958;BME280;63741;42.624;26.276;2023-04-29T04:07:46;99906.53;;;6.68;67.64
74958;BME280;63741;42.624;26.276;2023-04-29T04:10:34;99903.91;;;6.68;67.76
74958;BME280;63741;42.624;26.276;2023-04-29T04:13:05;99898.00;;;6.78;68.41
74958;BME280;63741;42.624;26.276;2023-04-29T04:15:32;99912.38;;;7.03;66.23
74958;BME280;63741;42.624;26.276;2023-04-29T04:17:59;99909.16;;;7.28;64.86
74958;BME280;63741;42.624;26.276;2023-04-29T04:20:26;99906.31;;;7.17;65.64
74958;BME280;63741;42.624;26.276;2023-04-29T04:22:53;99904.41;;;7.04;67.05
74958;BME280;63741;42.624;26.276;2023-04-29T04:25:27;99914.03;;;7.20;65.62
74958;BME280;63741;42.624;26.276;2023-04-29T04:28:03;99919.22;;;7.35;66.84
74958;BME280;63741;42.624;26.276;2023-04-29T04:30:49;99919.06;;;7.53;65.03
74958;BME280;63741;42.624;26.276;2023-04-29T04:33:16;99915.13;;;7.60;64.42
74958;BME280;63741;42.624;26.276;2023-04-29T04:35:44;99909.56;;;7.65;65.85
74958;BME280;63741;42.624;26.276;2023-04-29T04:38:12;99924.88;;;7.72;65.63
74958;BME280;63741;42.624;26.276;2023-04-29T04:40:43;99914.56;;;7.69;66.16
74958;BME280;63741;42.624;26.276;2023-04-29T04:43:26;99924.50;;;7.93;65.38
74958;BME280;63741;42.624;26.276;2023-04-29T04:45:53;99917.88;;;8.28;62.79
74958;BME280;63741;42.624;26.276;2023-04-29T04:48:20;99920.91;;;8.37;63.75
74958;BME280;63741;42.624;26.276;2023-04-29T04:50:49;99918.53;;;8.32;62.50
74958;BME280;63741;42.624;26.276;2023-04-29T04:53:16;99914.69;;;8.38;62.14
74958;BME280;63741;42.624;26.276;2023-04-29T04:56:00;99923.56;;;8.22;63.50
74958;BME280;63741;42.624;26.276;2023-04-29T04:58:29;99924.28;;;8.39;62.51
74958;BME280;63741;42.624;26.276;2023-04-29T05:01:00;99921.28;;;8.45;63.64
74958;BME280;63741;42.624;26.276;2023-04-29T05:03:27;99920.13;;;8.49;63.71
74958;BME280;63741;42.624;26.276;2023-04-29T05:05:58;99917.19;;;8.53;64.05
74958;BME280;63741;42.624;26.276;2023-04-29T05:08:26;99921.75;;;8.64;62.87
74958;BME280;63741;42.624;26.276;2023-04-29T05:10:56;99916.00;;;8.72;62.80
74958;BME280;63741;42.624;26.276;2023-04-29T05:13:24;99923.56;;;8.91;62.68
74958;BME280;63741;42.624;26.276;2023-04-29T05:15:52;99924.22;;;9.07;62.70
74958;BME280;63741;42.624;26.276;2023-04-29T05:18:22;99923.09;;;9.11;60.90
74958;BME280;63741;42.624;26.276;2023-04-29T05:20:50;99922.31;;;9.09;60.69
74958;BME280;63741;42.624;26.276;2023-04-29T05:23:17;99927.19;;;9.15;61.40
74958;BME280;63741;42.624;26.276;2023-04-29T05:25:45;99926.59;;;9.37;61.70
74958;BME280;63741;42.624;26.276;2023-04-29T05:28:15;99930.16;;;9.23;61.98
74958;BME280;63741;42.624;26.276;2023-04-29T05:30:43;99927.22;;;9.41;60.48
74958;BME280;63741;42.624;26.276;2023-04-29T05:33:10;99923.53;;;9.43;61.21
74958;BME280;63741;42.624;26.276;2023-04-29T05:35:38;99940.34;;;9.68;60.14
74958;BME280;63741;42.624;26.276;2023-04-29T05:38:05;99942.03;;;9.81;60.53
74958;BME280;63741;42.624;26.276;2023-04-29T05:40:40;99938.53;;;9.94;60.10
74958;BME280;63741;42.624;26.276;2023-04-29T05:43:27;99939.16;;;10.10;60.17
74958;BME280;63741;42.624;26.276;2023-04-29T05:45:55;99934.06;;;10.32;59.36
74958;BME280;63741;42.624;26.276;2023-04-29T05:48:23;99940.81;;;10.24;57.64
74958;BME280;63741;42.624;26.276;2023-04-29T05:50:51;99934.38;;;10.28;59.19
74958;BME280;63741;42.624;26.276;2023-04-29T05:53:17;99939.66;;;10.41;58.34
74958;BME280;63741;42.624;26.276;2023-04-29T05:55:44;99929.66;;;10.44;58.26
74958;BME280;63741;42.624;26.276;2023-04-29T05:58:13;99927.13;;;10.43;56.98
74958;BME280;63741;42.624;26.276;2023-04-29T06:00:40;99928.94;;;10.66;57.10
74958;BME280;63741;42.624;26.276;2023-04-29T06:03:15;99925.63;;;10.75;56.74
74958;BME280;63741;42.624;26.276;2023-04-29T19:38:27;99580.31;;;14.38;50.86
74958;BME280;63741;42.624;26.276;2023-04-29T19:40:55;99577.00;;;14.17;50.60
74958;BME280;63741;42.624;26.276;2023-04-29T19:43:22;99583.41;;;14.34;50.58
74958;BME280;63741;42.624;26.276;2023-04-29T19:45:49;99583.03;;;14.00;51.52
74958;BME280;63741;42.624;26.276;2023-04-29T19:48:16;99591.75;;;13.63;52.66
74958;BME280;63741;42.624;26.276;2023-04-29T19:50:43;99583.88;;;13.42;53.59
74958;BME280;63741;42.624;26.276;2023-04-29T19:53:10;99588.25;;;13.62;53.09
74958;BME280;63741;42.624;26.276;2023-04-29T19:55:37;99585.97;;;13.48;53.23
74958;BME280;63741;42.624;26.276;2023-04-29T19:58:06;99591.88;;;13.71;52.33
74958;BME280;63741;42.624;26.276;2023-04-29T20:00:33;99586.13;;;13.37;52.59
74958;BME280;63741;42.624;26.276;2023-04-29T20:03:01;99583.88;;;13.32;52.76
74958;BME280;63741;42.624;26.276;2023-04-29T20:05:28;99589.41;;;13.10;52.17
74958;BME280;63741;42.624;26.276;2023-04-29T20:07:55;99585.97;;;12.88;53.05
74958;BME280;63741;42.624;26.276;2023-04-29T20:10:22;99594.28;;;13.05;53.59
74958;BME280;63741;42.624;26.276;2023-04-29T20:12:49;99586.19;;;13.16;52.63
74958;BME280;63741;42.624;26.276;2023-04-29T20:15:15;99589.47;;;12.89;53.04
74958;BME280;63741;42.624;26.276;2023-04-29T20:17:43;99591.91;;;13.21;52.87
74958;BME280;63741;42.624;26.276;2023-04-29T20:20:10;99591.84;;;13.32;52.31
74958;BME280;63741;42.624;26.276;2023-04-29T20:22:37;99598.84;;;13.43;51.32
74958;BME280;63741;42.624;26.276;2023-04-29T20:25:05;99595.06;;;13.36;51.15
74958;BME280;63741;42.624;26.276;2023-04-29T20:27:32;99596.19;;;13.33;51.23
74958;BME280;63741;42.624;26.276;2023-04-29T20:29:59;99592.00;;;13.31;51.56
74958;BME280;63741;42.624;26.276;2023-04-29T20:32:26;99589.88;;;13.25;52.06
74958;BME280;63741;42.624;26.276;2023-04-29T20:34:53;99590.25;;;13.20;51.91
74958;BME280;63741;42.624;26.276;2023-04-29T20:37:20;99585.97;;;13.29;51.58
74958;BME280;63741;42.624;26.276;2023-04-29T20:39:47;99589.19;;;13.23;51.53
74958;BME280;63741;42.624;26.276;2023-04-29T20:42:14;99590.41;;;13.19;51.02
74958;BME280;63741;42.624;26.276;2023-04-29T20:44:41;99595.91;;;12.86;50.33
74958;BME280;63741;42.624;26.276;2023-04-29T20:47:08;99600.19;;;12.78;50.83
74958;BME280;63741;42.624;26.276;2023-04-29T20:49:35;99603.75;;;12.67;51.15
74958;BME280;63741;42.624;26.276;2023-04-29T20:52:02;99609.25;;;12.45;51.64
74958;BME280;63741;42.624;26.276;2023-04-29T20:54:32;99610.94;;;12.46;51.81
74958;BME280;63741;42.624;26.276;2023-04-29T20:56:59;99612.00;;;12.33;52.14
74958;BME280;63741;42.624;26.276;2023-04-29T20:59:33;99609.53;;;12.42;51.50
74958;BME280;63741;42.624;26.276;2023-04-29T21:02:00;99613.22;;;12.50;52.16
74958;BME280;63741;42.624;26.276;2023-04-29T21:04:27;99604.78;;;12.45;53.57
74958;BME280;63741;42.624;26.276;2023-04-29T21:06:54;99601.97;;;12.37;53.55
74958;BME280;63741;42.624;26.276;2023-04-29T21:09:21;99602.66;;;12.39;52.07
74958;BME280;63741;42.624;26.276;2023-04-29T21:11:48;99602.41;;;12.21;53.14
74958;BME280;63741;42.624;26.276;2023-04-29T21:14:15;99605.31;;;12.39;51.87
74958;BME280;63741;42.624;26.276;2023-04-29T21:16:42;99596.28;;;12.21;52.56
74958;BME280;63741;42.624;26.276;2023-04-29T21:19:09;99604.69;;;12.26;53.27
74958;BME280;63741;42.624;26.276;2023-04-29T21:21:36;99590.88;;;12.32;52.63
74958;BME280;63741;42.624;26.276;2023-04-29T21:24:03;99598.38;;;12.48;53.04
74958;BME280;63741;42.624;26.276;2023-04-29T21:26:29;99592.41;;;12.55;54.02
74958;BME280;63741;42.624;26.276;2023-04-29T21:28:56;99591.69;;;12.53;54.33
74958;BME280;63741;42.624;26.276;2023-04-29T21:31:23;99596.56;;;12.48;54.90
74958;BME280;63741;42.624;26.276;2023-04-29T21:33:50;99600.44;;;12.44;54.71
74958;BME280;63741;42.624;26.276;2023-04-29T21:36:17;99604.44;;;12.29;55.03
74958;BME280;63741;42.624;26.276;2023-04-29T21:38:44;99599.81;;;12.31;54.45
74958;BME280;63741;42.624;26.276;2023-04-29T21:41:28;99603.09;;;12.44;53.75
74958;BME280;63741;42.624;26.276;2023-04-29T21:43:57;99595.34;;;12.52;53.69
74958;BME280;63741;42.624;26.276;2023-04-29T21:46:26;99596.75;;;12.56;53.40
74958;BME280;63741;42.624;26.276;2023-04-29T21:48:56;99592.75;;;12.41;54.01
74958;BME280;63741;42.624;26.276;2023-04-29T21:51:23;99599.56;;;12.13;55.51
74958;BME280;63741;42.624;26.276;2023-04-29T21:53:50;99601.72;;;12.19;55.46
74958;BME280;63741;42.624;26.276;2023-04-29T21:56:17;99596.06;;;11.92;55.70
74958;BME280;63741;42.624;26.276;2023-04-29T21:58:45;99595.97;;;11.93;56.71
74958;BME280;63741;42.624;26.276;2023-04-29T22:01:11;99594.28;;;11.81;57.35
74958;BME280;63741;42.624;26.276;2023-04-29T22:04:01;99594.28;;;11.81;58.02
74958;BME280;63741;42.624;26.276;2023-04-29T22:06:29;99593.09;;;11.85;57.81
74958;BME280;63741;42.624;26.276;2023-04-29T22:08:56;99585.75;;;11.88;57.30
74958;BME280;63741;42.624;26.276;2023-04-29T22:11:23;99590.50;;;11.95;57.43
74958;BME280;63741;42.624;26.276;2023-04-29T22:13:51;99590.97;;;12.00;57.21
74958;BME280;63741;42.624;26.276;2023-04-29T22:16:18;99587.81;;;12.06;56.80
74958;BME280;63741;42.624;26.276;2023-04-29T22:18:45;99588.72;;;12.16;56.25
74958;BME280;63741;42.624;26.276;2023-04-29T22:21:11;99587.81;;;12.06;56.28
74958;BME280;63741;42.624;26.276;2023-04-29T22:23:38;99592.91;;;11.98;57.10
74958;BME280;63741;42.624;26.276;2023-04-29T22:26:05;99589.69;;;12.15;56.10
74958;BME280;63741;42.624;26.276;2023-04-29T22:28:32;99578.69;;;12.20;56.94
74958;BME280;63741;42.624;26.276;2023-04-29T22:30:59;99587.94;;;12.25;57.16
74958;BME280;63741;42.624;26.276;2023-04-29T22:33:26;99576.28;;;12.17;57.58
74958;BME280;63741;42.624;26.276;2023-04-29T22:35:53;99579.97;;;12.25;57.63
74958;BME280;63741;42.624;26.276;2023-04-29T22:38:20;99583.06;;;12.09;57.53
74958;BME280;63741;42.624;26.276;2023-04-29T22:40:50;99580.56;;;12.08;57.82
74958;BME280;63741;42.624;26.276;2023-04-29T22:43:17;99568.63;;;11.93;58.36
74958;BME280;63741;42.624;26.276;2023-04-29T22:45:55;99569.44;;;11.93;59.05
74958;BME280;63741;42.624;26.276;2023-04-29T22:48:22;99563.03;;;11.96;58.91
74958;BME280;63741;42.624;26.276;2023-04-29T22:50:56;99556.56;;;12.09;57.96
74958;BME280;63741;42.624;26.276;2023-04-29T22:53:26;99555.91;;;11.75;58.63
74958;BME280;63741;42.624;26.276;2023-04-29T22:55:55;99550.84;;;11.72;58.85
74958;BME280;63741;42.624;26.276;2023-04-29T22:58:23;99552.41;;;11.75;58.29
74958;BME280;63741;42.624;26.276;2023-04-29T23:00:54;99550.56;;;11.54;59.01
74958;BME280;63741;42.624;26.276;2023-04-29T23:03:25;99543.59;;;11.53;59.26
74958;BME280;63741;42.624;26.276;2023-04-29T23:05:59;99549.31;;;11.37;59.79
74958;BME280;63741;42.624;26.276;2023-04-29T23:08:26;99550.06;;;11.28;59.44
74958;BME280;63741;42.624;26.276;2023-04-29T23:10:53;99543.06;;;11.38;58.87
74958;BME280;63741;42.624;26.276;2023-04-29T23:13:21;99538.09;;;11.45;58.95
74958;BME280;63741;42.624;26.276;2023-04-29T23:15:48;99535.66;;;11.53;58.25
74958;BME280;63741;42.624;26.276;2023-04-29T23:18:15;99541.34;;;11.49;58.08
74958;BME280;63741;42.624;26.276;2023-04-29T23:20:45;99535.75;;;11.52;56.82
74958;BME280;63741;42.624;26.276;2023-04-29T23:23:13;99543.22;;;11.58;57.05
74958;BME280;63741;42.624;26.276;2023-04-29T23:25:40;99537.00;;;11.48;57.23
74958;BME280;63741;42.624;26.276;2023-04-29T23:28:07;99535.91;;;11.50;58.06
74958;BME280;63741;42.624;26.276;2023-04-29T23:30:34;99539.66;;;11.48;57.26
74958;BME280;63741;42.624;26.276;2023-04-29T23:33:01;99540.59;;;11.47;58.38
74958;BME280;63741;42.624;26.276;2023-04-29T23:35:28;99538.22;;;11.44;57.79
74958;BME280;63741;42.624;26.276;2023-04-29T23:37:55;99536.44;;;11.01;59.47
74958;BME280;63741;42.624;26.276;2023-04-29T23:40:22;99535.22;;;11.05;59.44
74958;BME280;63741;42.624;26.276;2023-04-29T23:42:49;99533.66;;;11.02;59.90
74958;BME280;63741;42.624;26.276;2023-04-29T23:45:16;99525.97;;;10.99;59.48
74958;BME280;63741;42.624;26.276;2023-04-29T23:47:43;99531.88;;;10.92;60.56
74958;BME280;63741;42.624;26.276;2023-04-29T23:50:10;99534.66;;;10.79;59.48
74958;BME280;63741;42.624;26.276;2023-04-29T23:52:37;99525.06;;;10.67;60.20
74958;BME280;63741;42.624;26.276;2023-04-29T23:55:04;99525.06;;;10.67;59.91
74958;BME280;63741;42.624;26.276;2023-04-29T23:57:31;99518.97;;;10.55;60.52
74958;BME280;63741;42.624;26.276;2023-04-29T23:59:58;99518.22;;;10.53;61.16
